sensor_id;sensor_type;location;lat;lon;timestamp;P1;durP1;ratioP1;P2;durP2;ratioP2
17496;SDS011;62150;43.582;1.456;2024-01-10T04:39:22;17.83;;;8.20;;
17496;SDS011;62150;43.582;1.456;2024-01-10T04:41:49;16.37;;;8.07;;
17496;SDS011;62150;43.582;1.456;2024-01-10T04:44:17;16.43;;;8.00;;
17496;SDS011;62150;43.582;1.456;2024-01-10T04:46:44;16.93;;;8.00;;
17496;SDS011;62150;43.582;1.456;2024-01-10T04:49:12;15.67;;;8.00;;
17496;SDS011;62150;43.582;1.456;2024-01-10T04:51:40;15.80;;;7.83;;
17496;SDS011;62150;43.582;1.456;2024-01-10T04:54:07;17.47;;;7.97;;
17496;SDS011;62150;43.582;1.456;2024-01-10T04:56:36;17.83;;;8.30;;
17496;SDS011;62150;43.582;1.456;2024-01-10T04:59:04;16.30;;;7.53;;
17496;SDS011;62150;43.582;1.456;2024-01-10T05:01:31;16.93;;;8.20;;
17496;SDS011;62150;43.582;1.456;2024-01-10T05:03:59;15.53;;;7.53;;
17496;SDS011;62150;43.582;1.456;2024-01-10T05:06:26;16.63;;;7.57;;
17496;SDS011;62150;43.582;1.456;2024-01-10T05:08:54;17.10;;;8.17;;
17496;SDS011;62150;43.582;1.456;2024-01-10T05:11:23;15.90;;;7.97;;
17496;SDS011;62150;43.582;1.456;2024-01-10T05:13:53;15.50;;;7.70;;
17496;SDS011;62150;43.582;1.456;2024-01-10T05:16:20;16.00;;;7.60;;
17496;SDS011;62150;43.582;1.456;2024-01-10T05:18:48;14.80;;;7.60;;
17496;SDS011;62150;43.582;1.456;2024-01-10T05:21:15;16.70;;;7.77;;
17496;SDS011;62150;43.582;1.456;2024-01-10T05:23:43;15.17;;;7.40;;
17496;SDS011;62150;43.582;1.456;2024-01-10T05:26:11;15.93;;;7.97;;
17496;SDS011;62150;43.582;1.456;2024-01-10T05:28:38;14.47;;;7.27;;
17496;SDS011;62150;43.582;1.456;2024-01-10T05:31:07;14.80;;;7.10;;
17496;SDS011;62150;43.582;1.456;2024-01-10T05:33:34;15.07;;;7.10;;
17496;SDS011;62150;43.582;1.456;2024-01-10T05:36:02;16.17;;;7.47;;
17496;SDS011;62150;43.582;1.456;2024-01-10T05:38:30;15.50;;;7.67;;
17496;SDS011;62150;43.582;1.456;2024-01-10T05:40:57;15.60;;;7.50;;
17496;SDS011;62150;43.582;1.456;2024-01-10T05:43:25;17.10;;;8.17;;
17496;SDS011;62150;43.582;1.456;2024-01-10T05:45:52;14.03;;;6.87;;
17496;SDS011;62150;43.582;1.456;2024-01-10T05:48:21;14.90;;;6.93;;
17496;SDS011;62150;43.582;1.456;2024-01-10T05:50:49;14.87;;;7.37;;
17496;SDS011;62150;43.582;1.456;2024-01-10T05:53:17;14.03;;;7.20;;
17496;SDS011;62150;43.582;1.456;2024-01-10T05:55:44;16.70;;;7.50;;
17496;SDS011;62150;43.582;1.456;2024-01-10T05:58:12;15.63;;;7.13;;
17496;SDS011;62150;43.582;1.456;2024-01-10T06:00:39;14.37;;;7.00;;
17496;SDS011;62150;43.582;1.456;2024-01-10T06:03:07;14.77;;;6.70;;
17496;SDS011;62150;43.582;1.456;2024-01-10T06:05:35;14.97;;;6.97;;
17496;SDS011;62150;43.582;1.456;2024-01-10T06:08:03;14.13;;;6.80;;
17496;SDS011;62150;43.582;1.456;2024-01-10T06:10:31;14.03;;;6.73;;
17496;SDS011;62150;43.582;1.456;2024-01-10T06:12:59;14.80;;;7.23;;
17496;SDS011;62150;43.582;1.456;2024-01-10T06:15:26;14.50;;;7.37;;
17496;SDS011;62150;43.582;1.456;2024-01-10T06:17:54;15.30;;;7.13;;
17496;SDS011;62150;43.582;1.456;2024-01-10T06:20:21;15.20;;;7.00;;
17496;SDS011;62150;43.582;1.456;2024-01-10T06:22:50;14.67;;;6.97;;
17496;SDS011;62150;43.582;1.456;2024-01-10T06:25:18;14.83;;;6.77;;
17496;SDS011;62150;43.582;1.456;2024-01-10T06:27:45;15.50;;;7.50;;
17496;SDS011;62150;43.582;1.456;2024-01-10T06:30:13;15.27;;;6.97;;
17496;SDS011;62150;43.582;1.456;2024-01-10T06:32:40;14.07;;;6.87;;
17496;SDS011;62150;43.582;1.456;2024-01-10T06:35:08;14.73;;;7.13;;
17496;SDS011;62150;43.582;1.456;2024-01-10T06:37:35;13.70;;;6.57;;
17496;SDS011;62150;43.582;1.456;2024-01-10T06:40:05;15.03;;;7.27;;
17496;SDS011;62150;43.582;1.456;2024-01-10T06:42:33;12.80;;;6.43;;
17496;SDS011;62150;43.582;1.456;2024-01-10T06:45:03;14.03;;;6.60;;
17496;SDS011;62150;43.582;1.456;2024-01-10T06:47:32;13.83;;;6.47;;
17496;SDS011;62150;43.582;1.456;2024-01-10T06:50:00;14.50;;;7.10;;
17496;SDS011;62150;43.582;1.456;2024-01-10T06:52:30;13.07;;;6.67;;
17496;SDS011;62150;43.582;1.456;2024-01-10T06:54:58;13.00;;;6.03;;
17496;SDS011;62150;43.582;1.456;2024-01-10T06:57:27;13.57;;;6.40;;
17496;SDS011;62150;43.582;1.456;2024-01-10T06:59:54;13.50;;;6.13;;
17496;SDS011;62150;43.582;1.456;2024-01-10T07:02:22;12.63;;;5.97;;
17496;SDS011;62150;43.582;1.456;2024-01-10T07:04:50;13.47;;;6.70;;
17496;SDS011;62150;43.582;1.456;2024-01-10T07:07:16;13.47;;;6.50;;
17496;SDS011;62150;43.582;1.456;2024-01-10T07:09:44;13.90;;;6.27;;
17496;SDS011;62150;43.582;1.456;2024-01-10T07:12:11;13.50;;;6.30;;
17496;SDS011;62150;43.582;1.456;2024-01-10T07:14:40;14.07;;;6.80;;
17496;SDS011;62150;43.582;1.456;2024-01-10T07:17:08;13.30;;;6.33;;
17496;SDS011;62150;43.582;1.456;2024-01-10T07:19:35;13.13;;;6.30;;
17496;SDS011;62150;43.582;1.456;2024-01-10T07:22:03;13.40;;;6.43;;
17496;SDS011;62150;43.582;1.456;2024-01-10T07:24:31;12.57;;;6.37;;
17496;SDS011;62150;43.582;1.456;2024-01-10T07:26:59;13.33;;;6.53;;
17496;SDS011;62150;43.582;1.456;2024-01-10T07:29:27;14.73;;;6.40;;
17496;SDS011;62150;43.582;1.456;2024-01-10T07:31:57;14.63;;;6.73;;
17496;SDS011;62150;43.582;1.456;2024-01-10T07:34:25;13.37;;;6.63;;
17496;SDS011;62150;43.582;1.456;2024-01-10T07:36:52;15.00;;;6.70;;
17496;SDS011;62150;43.582;1.456;2024-01-10T07:39:20;13.97;;;6.53;;
17496;SDS011;62150;43.582;1.456;2024-01-10T07:41:48;14.03;;;6.83;;
17496;SDS011;62150;43.582;1.456;2024-01-10T07:44:16;13.80;;;6.77;;
17496;SDS011;62150;43.582;1.456;2024-01-10T07:46:43;13.40;;;7.03;;
17496;SDS011;62150;43.582;1.456;2024-01-10T07:49:12;14.50;;;7.03;;
17496;SDS011;62150;43.582;1.456;2024-01-10T07:51:41;13.20;;;6.53;;
17496;SDS011;62150;43.582;1.456;2024-01-10T07:54:09;12.27;;;6.17;;
17496;SDS011;62150;43.582;1.456;2024-01-10T07:56:36;13.53;;;6.77;;
17496;SDS011;62150;43.582;1.456;2024-01-10T07:59:05;13.20;;;6.43;;
17496;SDS011;62150;43.582;1.456;2024-01-10T08:01:32;13.93;;;6.70;;
17496;SDS011;62150;43.582;1.456;2024-01-10T08:04:00;14.90;;;7.23;;
17496;SDS011;62150;43.582;1.456;2024-01-10T08:06:28;14.90;;;6.70;;
17496;SDS011;62150;43.582;1.456;2024-01-10T08:08:56;14.27;;;7.00;;
17496;SDS011;62150;43.582;1.456;2024-01-10T08:11:23;14.93;;;6.57;;
17496;SDS011;62150;43.582;1.456;2024-01-10T08:13:51;17.97;;;7.80;;
17496;SDS011;62150;43.582;1.456;2024-01-10T08:16:18;16.70;;;8.13;;
17496;SDS011;62150;43.582;1.456;2024-01-10T08:18:46;15.57;;;7.57;;
17496;SDS011;62150;43.582;1.456;2024-01-10T08:21:13;17.00;;;8.37;;
17496;SDS011;62150;43.582;1.456;2024-01-10T08:23:42;17.27;;;8.40;;
17496;SDS011;62150;43.582;1.456;2024-01-10T08:26:10;15.73;;;7.80;;
17496;SDS011;62150;43.582;1.456;2024-01-10T08:28:38;16.57;;;7.10;;
17496;SDS011;62150;43.582;1.456;2024-01-10T08:31:05;15.93;;;7.87;;
17496;SDS011;62150;43.582;1.456;2024-01-10T08:33:33;17.73;;;7.80;;
17496;SDS011;62150;43.582;1.456;2024-01-10T08:36:01;15.97;;;8.30;;
17496;SDS011;62150;43.582;1.456;2024-01-10T08:38:46;14.90;;;7.47;;
17496;SDS011;62150;43.582;1.456;2024-01-10T08:41:14;15.40;;;7.80;;
17496;SDS011;62150;43.582;1.456;2024-01-10T08:43:43;15.50;;;8.20;;
17496;SDS011;62150;43.582;1.456;2024-01-10T08:46:14;16.93;;;7.83;;
17496;SDS011;62150;43.582;1.456;2024-01-10T08:48:43;16.17;;;8.07;;
17496;SDS011;62150;43.582;1.456;2024-01-10T08:51:12;18.63;;;8.00;;
17496;SDS011;62150;43.582;1.456;2024-01-10T08:53:41;17.63;;;8.57;;
17496;SDS011;62150;43.582;1.456;2024-01-10T08:56:10;17.27;;;8.53;;
17496;SDS011;62150;43.582;1.456;2024-01-10T08:58:38;18.17;;;8.33;;
17496;SDS011;62150;43.582;1.456;2024-01-10T09:01:05;15.60;;;8.07;;
17496;SDS011;62150;43.582;1.456;2024-01-10T09:03:33;16.53;;;8.10;;
17496;SDS011;62150;43.582;1.456;2024-01-10T09:06:01;16.40;;;8.30;;
17496;SDS011;62150;43.582;1.456;2024-01-10T09:08:29;16.43;;;7.80;;
17496;SDS011;62150;43.582;1.456;2024-01-10T09:10:56;15.03;;;7.83;;
17496;SDS011;62150;43.582;1.456;2024-01-10T09:13:25;16.60;;;8.13;;
17496;SDS011;62150;43.582;1.456;2024-01-10T09:15:53;15.00;;;7.40;;
17496;SDS011;62150;43.582;1.456;2024-01-10T09:18:21;15.03;;;7.47;;
17496;SDS011;62150;43.582;1.456;2024-01-10T09:20:49;15.00;;;7.80;;
17496;SDS011;62150;43.582;1.456;2024-01-10T09:23:16;15.77;;;8.33;;
17496;SDS011;62150;43.582;1.456;2024-01-10T09:25:44;16.07;;;7.67;;
17496;SDS011;62150;43.582;1.456;2024-01-10T09:28:11;13.57;;;7.40;;
17496;SDS011;62150;43.582;1.456;2024-01-10T09:30:40;14.23;;;7.07;;
17496;SDS011;62150;43.582;1.456;2024-01-10T09:33:08;13.50;;;6.40;;
17496;SDS011;62150;43.582;1.456;2024-01-10T09:35:36;15.00;;;7.47;;
17496;SDS011;62150;43.582;1.456;2024-01-10T09:38:03;13.87;;;6.87;;
17496;SDS011;62150;43.582;1.456;2024-01-10T09:40:31;14.33;;;6.73;;
17496;SDS011;62150;43.582;1.456;2024-01-10T09:42:58;13.40;;;6.87;;
17496;SDS011;62150;43.582;1.456;2024-01-10T09:45:26;14.80;;;7.40;;
17496;SDS011;62150;43.582;1.456;2024-01-10T09:47:58;13.77;;;6.90;;
17496;SDS011;62150;43.582;1.456;2024-01-10T09:50:26;13.77;;;6.90;;
17496;SDS011;62150;43.582;1.456;2024-01-10T09:52:56;13.73;;;7.00;;
17496;SDS011;62150;43.582;1.456;2024-01-10T09:55:33;13.40;;;6.70;;
17496;SDS011;62150;43.582;1.456;2024-01-10T09:58:03;12.83;;;6.23;;
17496;SDS011;62150;43.582;1.456;2024-01-10T10:00:34;13.87;;;6.77;;
17496;SDS011;62150;43.582;1.456;2024-01-10T10:03:04;15.93;;;6.53;;
17496;SDS011;62150;43.582;1.456;2024-01-10T10:05:37;13.00;;;6.30;;
17496;SDS011;62150;43.582;1.456;2024-01-10T10:08:07;12.30;;;6.10;;
17496;SDS011;62150;43.582;1.456;2024-01-10T10:10:36;12.77;;;6.80;;
17496;SDS011;62150;43.582;1.456;2024-01-10T10:13:08;13.90;;;6.60;;
17496;SDS011;62150;43.582;1.456;2024-01-10T10:15:37;12.63;;;5.90;;
17496;SDS011;62150;43.582;1.456;2024-01-10T10:18:06;12.00;;;6.23;;
17496;SDS011;62150;43.582;1.456;2024-01-10T10:20:39;12.97;;;6.33;;
17496;SDS011;62150;43.582;1.456;2024-01-10T10:23:07;13.70;;;6.37;;
17496;SDS011;62150;43.582;1.456;2024-01-10T10:25:39;13.43;;;6.60;;
17496;SDS011;62150;43.582;1.456;2024-01-10T10:28:10;12.87;;;6.40;;
17496;SDS011;62150;43.582;1.456;2024-01-10T10:30:38;13.20;;;6.80;;
17496;SDS011;62150;43.582;1.456;2024-01-10T10:33:07;13.90;;;6.27;;
17496;SDS011;62150;43.582;1.456;2024-01-10T10:35:35;14.23;;;6.60;;
17496;SDS011;62150;43.582;1.456;2024-01-10T10:38:03;12.63;;;6.13;;
17496;SDS011;62150;43.582;1.456;2024-01-10T10:40:32;14.63;;;6.97;;
17496;SDS011;62150;43.582;1.456;2024-01-10T10:43:00;12.90;;;6.73;;
17496;SDS011;62150;43.582;1.456;2024-01-10T10:45:31;14.83;;;7.00;;
17496;SDS011;62150;43.582;1.456;2024-01-10T10:48:00;13.00;;;6.67;;
17496;SDS011;62150;43.582;1.456;2024-01-10T10:50:32;12.70;;;6.23;;
17496;SDS011;62150;43.582;1.456;2024-01-10T10:53:02;11.57;;;5.97;;
17496;SDS011;62150;43.582;1.456;2024-01-10T10:55:30;13.40;;;6.53;;
17496;SDS011;62150;43.582;1.456;2024-01-10T10:57:59;14.67;;;7.23;;
17496;SDS011;62150;43.582;1.456;2024-01-10T11:00:30;14.17;;;7.40;;
17496;SDS011;62150;43.582;1.456;2024-01-10T11:02:59;12.93;;;6.60;;
17496;SDS011;62150;43.582;1.456;2024-01-10T11:05:30;13.13;;;6.70;;
17496;SDS011;62150;43.582;1.456;2024-01-10T11:07:58;15.37;;;6.93;;
17496;SDS011;62150;43.582;1.456;2024-01-10T11:10:29;13.57;;;6.97;;
17496;SDS011;62150;43.582;1.456;2024-01-10T11:13:03;15.10;;;7.40;;
17496;SDS011;62150;43.582;1.456;2024-01-10T11:15:57;14.63;;;7.10;;
17496;SDS011;62150;43.582;1.456;2024-01-10T11:18:54;14.90;;;7.57;;
17496;SDS011;62150;43.582;1.456;2024-01-10T11:21:45;16.57;;;9.53;;
17496;SDS011;62150;43.582;1.456;2024-01-10T11:24:24;19.63;;;11.30;;
17496;SDS011;62150;43.582;1.456;2024-01-10T11:27:04;19.23;;;11.53;;
17496;SDS011;62150;43.582;1.456;2024-01-10T11:29:36;19.43;;;10.80;;
17496;SDS011;62150;43.582;1.456;2024-01-10T11:32:05;18.60;;;10.17;;
17496;SDS011;62150;43.582;1.456;2024-01-10T11:34:34;19.90;;;10.93;;
17496;SDS011;62150;43.582;1.456;2024-01-10T11:37:12;18.00;;;11.10;;
17496;SDS011;62150;43.582;1.456;2024-01-10T11:39:41;17.03;;;9.63;;
17496;SDS011;62150;43.582;1.456;2024-01-10T11:42:09;19.57;;;10.23;;
17496;SDS011;62150;43.582;1.456;2024-01-10T11:44:46;18.53;;;9.97;;
17496;SDS011;62150;43.582;1.456;2024-01-10T11:47:14;18.67;;;9.60;;
17496;SDS011;62150;43.582;1.456;2024-01-10T11:49:53;18.27;;;10.23;;
17496;SDS011;62150;43.582;1.456;2024-01-10T11:52:23;16.73;;;9.43;;
17496;SDS011;62150;43.582;1.456;2024-01-10T11:54:58;19.90;;;9.57;;
17496;SDS011;62150;43.582;1.456;2024-01-10T11:57:27;15.60;;;8.40;;
17496;SDS011;62150;43.582;1.456;2024-01-10T11:59:57;15.80;;;8.17;;
17496;SDS011;62150;43.582;1.456;2024-01-10T12:02:25;17.70;;;9.13;;
17496;SDS011;62150;43.582;1.456;2024-01-10T12:04:53;16.13;;;8.23;;
17496;SDS011;62150;43.582;1.456;2024-01-10T12:07:24;29.60;;;20.53;;
17496;SDS011;62150;43.582;1.456;2024-01-10T12:09:52;29.50;;;21.43;;
17496;SDS011;62150;43.582;1.456;2024-01-10T12:12:21;22.73;;;15.03;;
17496;SDS011;62150;43.582;1.456;2024-01-10T12:14:50;19.83;;;12.33;;
17496;SDS011;62150;43.582;1.456;2024-01-10T12:17:17;19.13;;;11.47;;
17496;SDS011;62150;43.582;1.456;2024-01-10T12:19:45;17.20;;;10.13;;
17496;SDS011;62150;43.582;1.456;2024-01-10T12:22:13;18.53;;;9.17;;
17496;SDS011;62150;43.582;1.456;2024-01-10T12:24:45;15.90;;;9.30;;
17496;SDS011;62150;43.582;1.456;2024-01-10T12:27:16;16.40;;;8.83;;
17496;SDS011;62150;43.582;1.456;2024-01-10T12:29:47;15.77;;;9.27;;
17496;SDS011;62150;43.582;1.456;2024-01-10T12:32:16;16.63;;;9.13;;
17496;SDS011;62150;43.582;1.456;2024-01-10T12:34:45;18.10;;;9.57;;
17496;SDS011;62150;43.582;1.456;2024-01-10T12:37:13;17.20;;;9.03;;
17496;SDS011;62150;43.582;1.456;2024-01-10T12:39:41;15.57;;;9.03;;
17496;SDS011;62150;43.582;1.456;2024-01-10T12:42:10;17.37;;;9.77;;
17496;SDS011;62150;43.582;1.456;2024-01-10T12:44:40;16.73;;;8.73;;
17496;SDS011;62150;43.582;1.456;2024-01-10T12:47:17;16.63;;;9.43;;
17496;SDS011;62150;43.582;1.456;2024-01-10T12:49:46;18.53;;;10.47;;
17496;SDS011;62150;43.582;1.456;2024-01-10T12:52:14;16.47;;;9.83;;
17496;SDS011;62150;43.582;1.456;2024-01-10T12:54:41;18.33;;;10.23;;
17496;SDS011;62150;43.582;1.456;2024-01-10T12:57:11;18.77;;;10.50;;
17496;SDS011;62150;43.582;1.456;2024-01-10T12:59:38;17.77;;;9.63;;
17496;SDS011;62150;43.582;1.456;2024-01-10T13:02:06;18.57;;;9.47;;
17496;SDS011;62150;43.582;1.456;2024-01-10T13:04:36;17.00;;;9.90;;
17496;SDS011;62150;43.582;1.456;2024-01-10T13:07:03;17.67;;;9.53;;
17496;SDS011;62150;43.582;1.456;2024-01-10T13:09:31;17.87;;;9.70;;
17496;SDS011;62150;43.582;1.456;2024-01-10T13:11:58;17.67;;;9.73;;
17496;SDS011;62150;43.582;1.456;2024-01-10T13:14:27;17.87;;;9.40;;
17496;SDS011;62150;43.582;1.456;2024-01-10T13:16:56;16.40;;;8.53;;
17496;SDS011;62150;43.582;1.456;2024-01-10T13:19:23;18.13;;;9.90;;
17496;SDS011;62150;43.582;1.456;2024-01-10T13:21:51;17.63;;;9.50;;
17496;SDS011;62150;43.582;1.456;2024-01-10T13:24:18;17.73;;;9.77;;
17496;SDS011;62150;43.582;1.456;2024-01-10T13:26:46;17.63;;;9.33;;
17496;SDS011;62150;43.582;1.456;2024-01-10T13:29:14;17.13;;;9.93;;
17496;SDS011;62150;43.582;1.456;2024-01-10T13:31:43;17.77;;;10.10;;
17496;SDS011;62150;43.582;1.456;2024-01-10T13:34:12;17.23;;;9.53;;
17496;SDS011;62150;43.582;1.456;2024-01-10T13:36:40;17.77;;;9.60;;
17496;SDS011;62150;43.582;1.456;2024-01-10T13:39:07;15.90;;;8.60;;
17496;SDS011;62150;43.582;1.456;2024-01-10T13:41:40;15.37;;;8.60;;
17496;SDS011;62150;43.582;1.456;2024-01-10T13:44:07;17.07;;;9.37;;
17496;SDS011;62150;43.582;1.456;2024-01-10T13:46:35;16.00;;;8.73;;
17496;SDS011;62150;43.582;1.456;2024-01-10T13:49:05;15.93;;;8.57;;
17496;SDS011;62150;43.582;1.456;2024-01-10T13:51:32;15.43;;;8.27;;
17496;SDS011;62150;43.582;1.456;2024-01-10T13:54:00;17.83;;;8.83;;
17496;SDS011;62150;43.582;1.456;2024-01-10T13:56:27;15.53;;;8.23;;
17496;SDS011;62150;43.582;1.456;2024-01-10T13:58:57;15.60;;;8.23;;
17496;SDS011;62150;43.582;1.456;2024-01-10T14:01:24;15.80;;;8.53;;
17496;SDS011;62150;43.582;1.456;2024-01-10T14:03:52;17.23;;;8.03;;
17496;SDS011;62150;43.582;1.456;2024-01-10T14:06:21;15.37;;;7.80;;
17496;SDS011;62150;43.582;1.456;2024-01-10T14:08:48;14.67;;;7.17;;
17496;SDS011;62150;43.582;1.456;2024-01-10T14:11:16;15.37;;;7.87;;
17496;SDS011;62150;43.582;1.456;2024-01-10T14:13:44;15.70;;;7.77;;
17496;SDS011;62150;43.582;1.456;2024-01-10T14:16:12;15.90;;;7.93;;
17496;SDS011;62150;43.582;1.456;2024-01-10T14:18:39;16.20;;;8.13;;
17496;SDS011;62150;43.582;1.456;2024-01-10T14:21:07;14.30;;;7.67;;
17496;SDS011;62150;43.582;1.456;2024-01-10T14:23:36;14.70;;;7.50;;
17496;SDS011;62150;43.582;1.456;2024-01-10T14:26:03;15.37;;;7.73;;
17496;SDS011;62150;43.582;1.456;2024-01-10T14:28:31;14.63;;;7.47;;
17496;SDS011;62150;43.582;1.456;2024-01-10T14:30:59;15.67;;;7.90;;
17496;SDS011;62150;43.582;1.456;2024-01-10T14:33:26;15.73;;;7.90;;
17496;SDS011;62150;43.582;1.456;2024-01-10T14:35:54;14.60;;;7.53;;
17496;SDS011;62150;43.582;1.456;2024-01-10T14:38:21;14.17;;;7.00;;
17496;SDS011;62150;43.582;1.456;2024-01-10T14:40:50;12.20;;;6.60;;
17496;SDS011;62150;43.582;1.456;2024-01-10T14:43:18;13.03;;;6.50;;
17496;SDS011;62150;43.582;1.456;2024-01-10T14:45:45;12.83;;;6.37;;
17496;SDS011;62150;43.582;1.456;2024-01-10T14:48:13;12.97;;;6.83;;
17496;SDS011;62150;43.582;1.456;2024-01-10T14:50:41;14.37;;;6.87;;
17496;SDS011;62150;43.582;1.456;2024-01-10T14:53:08;13.70;;;6.80;;
17496;SDS011;62150;43.582;1.456;2024-01-10T14:55:36;14.07;;;7.13;;
17496;SDS011;62150;43.582;1.456;2024-01-10T14:58:05;12.13;;;6.20;;
17496;SDS011;62150;43.582;1.456;2024-01-10T15:00:33;14.07;;;7.00;;
17496;SDS011;62150;43.582;1.456;2024-01-10T15:03:00;14.00;;;6.97;;
17496;SDS011;62150;43.582;1.456;2024-01-10T15:05:29;14.73;;;6.93;;
17496;SDS011;62150;43.582;1.456;2024-01-10T15:07:56;13.70;;;7.30;;
17496;SDS011;62150;43.582;1.456;2024-01-10T15:10:24;14.90;;;6.80;;
17496;SDS011;62150;43.582;1.456;2024-01-10T15:12:52;14.73;;;7.20;;
17496;SDS011;62150;43.582;1.456;2024-01-10T15:15:21;14.70;;;6.97;;
17496;SDS011;62150;43.582;1.456;2024-01-10T15:17:48;14.30;;;7.27;;
17496;SDS011;62150;43.582;1.456;2024-01-10T15:20:16;13.97;;;6.87;;
17496;SDS011;62150;43.582;1.456;2024-01-10T15:22:44;13.53;;;7.50;;
17496;SDS011;62150;43.582;1.456;2024-01-10T15:25:12;15.70;;;7.73;;
17496;SDS011;62150;43.582;1.456;2024-01-10T15:27:39;15.40;;;7.63;;
17496;SDS011;62150;43.582;1.456;2024-01-10T15:30:07;16.30;;;8.63;;
17496;SDS011;62150;43.582;1.456;2024-01-10T15:32:37;15.57;;;8.13;;
17496;SDS011;62150;43.582;1.456;2024-01-10T15:35:05;16.00;;;8.00;;
17496;SDS011;62150;43.582;1.456;2024-01-10T15:37:32;15.27;;;7.27;;
17496;SDS011;62150;43.582;1.456;2024-01-10T15:40:00;16.80;;;8.33;;
17496;SDS011;62150;43.582;1.456;2024-01-10T15:42:28;16.03;;;8.30;;
17496;SDS011;62150;43.582;1.456;2024-01-10T15:44:55;17.27;;;8.40;;
17496;SDS011;62150;43.582;1.456;2024-01-10T15:47:23;15.17;;;7.93;;
17496;SDS011;62150;43.582;1.456;2024-01-10T15:49:53;14.23;;;7.77;;
17496;SDS011;62150;43.582;1.456;2024-01-10T15:52:21;14.53;;;7.57;;
17496;SDS011;62150;43.582;1.456;2024-01-10T15:54:51;16.00;;;8.30;;
17496;SDS011;62150;43.582;1.456;2024-01-10T15:57:19;16.00;;;8.10;;
17496;SDS011;62150;43.582;1.456;2024-01-10T15:59:46;16.37;;;8.53;;
17496;SDS011;62150;43.582;1.456;2024-01-10T16:02:14;16.43;;;8.53;;
17496;SDS011;62150;43.582;1.456;2024-01-10T16:04:41;15.23;;;8.33;;
17496;SDS011;62150;43.582;1.456;2024-01-10T16:07:10;16.40;;;7.80;;
17496;SDS011;62150;43.582;1.456;2024-01-10T16:09:38;15.17;;;8.13;;
17496;SDS011;62150;43.582;1.456;2024-01-10T16:12:06;17.67;;;8.37;;
17496;SDS011;62150;43.582;1.456;2024-01-10T16:14:34;16.57;;;8.13;;
17496;SDS011;62150;43.582;1.456;2024-01-10T16:17:01;16.37;;;8.73;;
17496;SDS011;62150;43.582;1.456;2024-01-10T16:19:29;16.37;;;8.63;;
17496;SDS011;62150;43.582;1.456;2024-01-10T16:21:56;18.87;;;10.43;;
17496;SDS011;62150;43.582;1.456;2024-01-10T16:24:25;17.80;;;9.20;;
17496;SDS011;62150;43.582;1.456;2024-01-10T16:26:53;16.93;;;8.90;;
17496;SDS011;62150;43.582;1.456;2024-01-10T16:29:20;17.60;;;9.27;;
17496;SDS011;62150;43.582;1.456;2024-01-10T16:31:48;15.77;;;8.77;;
17496;SDS011;62150;43.582;1.456;2024-01-10T16:34:15;16.47;;;8.57;;
17496;SDS011;62150;43.582;1.456;2024-01-10T16:36:45;14.57;;;7.97;;
17496;SDS011;62150;43.582;1.456;2024-01-10T16:39:12;15.70;;;8.73;;
17496;SDS011;62150;43.582;1.456;2024-01-10T16:41:41;17.07;;;9.17;;
17496;SDS011;62150;43.582;1.456;2024-01-10T16:44:09;15.90;;;8.83;;
17496;SDS011;62150;43.582;1.456;2024-01-10T16:46:36;15.87;;;9.20;;
17496;SDS011;62150;43.582;1.456;2024-01-10T16:49:04;22.37;;;11.50;;
17496;SDS011;62150;43.582;1.456;2024-01-10T16:51:32;22.07;;;12.53;;
17496;SDS011;62150;43.582;1.456;2024-01-10T16:54:01;24.87;;;13.70;;
17496;SDS011;62150;43.582;1.456;2024-01-10T16:56:27;24.40;;;14.13;;
17496;SDS011;62150;43.582;1.456;2024-01-10T16:58:59;23.13;;;12.90;;
17496;SDS011;62150;43.582;1.456;2024-01-10T17:01:26;22.53;;;13.30;;
17496;SDS011;62150;43.582;1.456;2024-01-10T17:03:54;22.23;;;13.30;;
17496;SDS011;62150;43.582;1.456;2024-01-10T17:06:22;22.00;;;12.27;;
17496;SDS011;62150;43.582;1.456;2024-01-10T17:08:50;21.37;;;12.43;;
17496;SDS011;62150;43.582;1.456;2024-01-10T17:11:17;24.13;;;12.70;;
17496;SDS011;62150;43.582;1.456;2024-01-10T17:13:44;20.83;;;12.13;;
17496;SDS011;62150;43.582;1.456;2024-01-10T17:16:14;23.27;;;12.67;;
17496;SDS011;62150;43.582;1.456;2024-01-10T17:18:41;20.30;;;11.97;;
17496;SDS011;62150;43.582;1.456;2024-01-10T17:21:09;23.40;;;12.93;;
17496;SDS011;62150;43.582;1.456;2024-01-10T17:23:36;19.73;;;11.97;;
17496;SDS011;62150;43.582;1.456;2024-01-10T17:26:04;24.47;;;13.93;;
17496;SDS011;62150;43.582;1.456;2024-01-10T17:28:31;20.47;;;11.93;;
17496;SDS011;62150;43.582;1.456;2024-01-10T17:30:59;18.83;;;10.80;;
17496;SDS011;62150;43.582;1.456;2024-01-10T17:33:28;21.37;;;11.93;;
17496;SDS011;62150;43.582;1.456;2024-01-10T17:35:58;19.83;;;11.43;;
17496;SDS011;62150;43.582;1.456;2024-01-10T17:38:25;19.57;;;11.33;;
17496;SDS011;62150;43.582;1.456;2024-01-10T17:40:54;21.27;;;12.17;;
17496;SDS011;62150;43.582;1.456;2024-01-10T17:43:22;22.00;;;11.30;;
17496;SDS011;62150;43.582;1.456;2024-01-10T17:45:49;21.67;;;11.47;;
17496;SDS011;62150;43.582;1.456;2024-01-10T17:48:18;21.47;;;12.00;;
17496;SDS011;62150;43.582;1.456;2024-01-10T17:50:47;21.00;;;11.80;;
17496;SDS011;62150;43.582;1.456;2024-01-10T17:53:14;20.53;;;11.07;;
17496;SDS011;62150;43.582;1.456;2024-01-10T17:55:42;21.97;;;12.10;;
17496;SDS011;62150;43.582;1.456;2024-01-10T17:58:09;18.47;;;10.30;;
17496;SDS011;62150;43.582;1.456;2024-01-10T18:00:37;18.87;;;10.00;;
17496;SDS011;62150;43.582;1.456;2024-01-10T18:03:06;18.30;;;9.30;;
17496;SDS011;62150;43.582;1.456;2024-01-10T18:05:33;19.93;;;9.47;;
17496;SDS011;62150;43.582;1.456;2024-01-10T18:08:05;16.17;;;9.13;;
17496;SDS011;62150;43.582;1.456;2024-01-10T18:10:32;16.73;;;9.37;;
17496;SDS011;62150;43.582;1.456;2024-01-10T18:13:00;18.33;;;10.07;;
17496;SDS011;62150;43.582;1.456;2024-01-10T18:15:28;15.97;;;8.83;;
17496;SDS011;62150;43.582;1.456;2024-01-10T18:17:56;16.87;;;9.60;;
17496;SDS011;62150;43.582;1.456;2024-01-10T18:20:27;16.47;;;9.00;;
17496;SDS011;62150;43.582;1.456;2024-01-10T18:22:55;18.07;;;10.03;;
17496;SDS011;62150;43.582;1.456;2024-01-10T18:25:24;17.93;;;9.57;;
17496;SDS011;62150;43.582;1.456;2024-01-10T18:27:51;16.87;;;9.20;;
17496;SDS011;62150;43.582;1.456;2024-01-10T18:30:19;18.97;;;9.77;;
17496;SDS011;62150;43.582;1.456;2024-01-10T18:32:46;17.17;;;9.73;;
17496;SDS011;62150;43.582;1.456;2024-01-10T18:35:14;16.87;;;9.33;;
17496;SDS011;62150;43.582;1.456;2024-01-10T18:37:44;17.17;;;9.67;;
17496;SDS011;62150;43.582;1.456;2024-01-10T18:40:11;19.37;;;10.50;;
17496;SDS011;62150;43.582;1.456;2024-01-10T18:42:41;19.67;;;10.40;;
17496;SDS011;62150;43.582;1.456;2024-01-10T18:45:09;17.50;;;9.63;;
17496;SDS011;62150;43.582;1.456;2024-01-10T18:47:36;18.90;;;10.10;;
17496;SDS011;62150;43.582;1.456;2024-01-10T18:50:04;16.67;;;9.80;;
17496;SDS011;62150;43.582;1.456;2024-01-10T18:52:32;18.40;;;9.90;;
17496;SDS011;62150;43.582;1.456;2024-01-10T18:55:00;17.93;;;10.30;;
17496;SDS011;62150;43.582;1.456;2024-01-10T18:57:27;17.00;;;9.33;;
17496;SDS011;62150;43.582;1.456;2024-01-10T18:59:56;17.97;;;9.40;;
17496;SDS011;62150;43.582;1.456;2024-01-10T19:02:23;17.57;;;9.53;;
17496;SDS011;62150;43.582;1.456;2024-01-10T19:04:51;19.87;;;11.00;;
17496;SDS011;62150;43.582;1.456;2024-01-10T19:07:18;18.50;;;10.10;;
17496;SDS011;62150;43.582;1.456;2024-01-10T19:09:46;18.07;;;10.13;;
17496;SDS011;62150;43.582;1.456;2024-01-10T19:12:14;16.77;;;9.63;;
17496;SDS011;62150;43.582;1.456;2024-01-10T19:14:41;17.90;;;10.10;;
17496;SDS011;62150;43.582;1.456;2024-01-10T19:17:11;19.17;;;11.40;;
17496;SDS011;62150;43.582;1.456;2024-01-10T19:19:38;18.77;;;11.43;;